createdAt,value
2019-01-24T00:00:54.334Z,-6.28
2019-01-24T00:03:22.614Z,-6.28
2019-01-24T00:05:50.873Z,-6.18
2019-01-24T00:08:19.168Z,-6.20
2019-01-24T00:10:47.423Z,-6.24
2019-01-24T00:13:15.687Z,-6.11
2019-01-24T00:15:43.956Z,-6.09
2019-01-24T00:18:12.296Z,-6.12
2019-01-24T00:20:40.579Z,-6.01
2019-01-24T00:23:08.846Z,-6.20
2019-01-24T00:25:37.151Z,-6.19
2019-01-24T00:28:05.411Z,-6.20
2019-01-24T00:30:33.682Z,-6.09
2019-01-24T00:33:01.951Z,-5.96
2019-01-24T00:35:30.215Z,-5.98
2019-01-24T00:37:58.487Z,-5.97
2019-01-24T00:40:26.742Z,-5.90
2019-01-24T00:42:55.009Z,-5.92
2019-01-24T00:45:23.359Z,-5.90
2019-01-24T00:47:51.663Z,-5.93
2019-01-24T00:50:19.923Z,-5.86
2019-01-24T00:52:48.193Z,-5.81
2019-01-24T00:55:49.713Z,-5.79
2019-01-24T00:58:17.993Z,-5.73
2019-01-24T01:00:46.279Z,-5.78
2019-01-24T01:03:14.545Z,-5.82
2019-01-24T01:05:42.828Z,-5.85
2019-01-24T01:08:11.096Z,-5.80
2019-01-24T01:10:39.351Z,-5.63
2019-01-24T01:13:07.611Z,-5.57
2019-01-24T01:15:35.878Z,-5.58
2019-01-24T01:21:12.277Z,-5.68
2019-01-24T01:23:40.546Z,-5.65
2019-01-24T01:26:08.818Z,-5.75
2019-01-24T01:28:37.083Z,-5.81
2019-01-24T01:31:05.433Z,-5.82
2019-01-24T01:33:33.699Z,-5.76
2019-01-24T01:36:01.962Z,-5.69
2019-01-24T01:38:30.216Z,-5.74
2019-01-24T01:40:58.488Z,-5.68
2019-01-24T01:43:26.827Z,-5.69
2019-01-24T01:45:55.091Z,-5.63
2019-01-24T01:48:42.706Z,-5.58
2019-01-24T01:51:10.954Z,-5.58
2019-01-24T01:53:39.221Z,-5.67
2019-01-24T01:56:07.474Z,-5.60
2019-01-24T01:58:35.737Z,-5.65
2019-01-24T02:04:12.069Z,-5.63
2019-01-24T02:06:40.338Z,-5.62
2019-01-24T02:09:42.737Z,-5.68
2019-01-24T02:12:10.997Z,-5.66
2019-01-24T02:14:39.264Z,-5.63
2019-01-24T02:17:07.530Z,-5.56
2019-01-24T02:19:35.811Z,-5.46
2019-01-24T02:25:45.760Z,-5.61
2019-01-24T02:28:14.027Z,-5.58
2019-01-24T02:30:42.304Z,-5.59
2019-01-24T02:33:10.568Z,-5.56
2019-01-24T02:35:38.819Z,-5.61
2019-01-24T02:38:07.085Z,-5.49
2019-01-24T02:40:35.355Z,-5.47
2019-01-24T02:43:03.621Z,-5.39
2019-01-24T02:45:31.893Z,-5.39
2019-01-24T02:48:00.154Z,-5.33
2019-01-24T02:50:28.415Z,-5.37
2019-01-24T02:52:56.678Z,-5.49
2019-01-24T02:55:24.944Z,-5.46
2019-01-24T02:57:53.216Z,-5.33
2019-01-24T03:00:40.821Z,-5.28
2019-01-24T03:03:09.103Z,-5.21
2019-01-24T03:05:37.390Z,-5.29
2019-01-24T03:08:05.643Z,-5.23
2019-01-24T03:10:33.916Z,-5.45
2019-01-24T03:13:02.185Z,-5.57
2019-01-24T03:15:30.464Z,-5.47
2019-01-24T03:17:58.730Z,-5.49
2019-01-24T03:20:27.000Z,-5.56
2019-01-24T03:22:55.311Z,-5.62
2019-01-24T03:25:23.563Z,-5.65
2019-01-24T03:27:51.835Z,-5.63
2019-01-24T03:30:39.440Z,-5.61
2019-01-24T03:33:07.706Z,-5.60
2019-01-24T03:35:35.954Z,-5.51
2019-01-24T03:38:04.215Z,-5.58
2019-01-24T03:40:32.468Z,-5.60
2019-01-24T03:43:00.741Z,-5.68
2019-01-24T03:45:28.994Z,-5.67
2019-01-24T03:47:57.283Z,-5.71
2019-01-24T03:50:25.546Z,-5.73
2019-01-24T03:53:33.839Z,-5.74
2019-01-24T03:56:02.096Z,-5.74
2019-01-24T03:58:30.365Z,-5.74
2019-01-24T04:00:58.638Z,-5.77
2019-01-24T04:03:26.905Z,-5.73
2019-01-24T04:05:55.172Z,-5.70
2019-01-24T04:08:23.441Z,-5.59
2019-01-24T04:10:51.693Z,-5.53
2019-01-24T04:13:19.974Z,-5.64
2019-01-24T04:15:48.260Z,-5.51
2019-01-24T04:18:16.522Z,-5.45
2019-01-24T04:20:44.790Z,-5.43
2019-01-24T04:23:13.062Z,-5.39
2019-01-24T04:25:41.357Z,-5.29
2019-01-24T04:28:09.646Z,-5.27
2019-01-24T04:30:37.895Z,-5.30
2019-01-24T04:33:06.158Z,-5.19
2019-01-24T04:35:34.435Z,-5.19
2019-01-24T04:38:02.725Z,-5.23
2019-01-24T04:40:31.008Z,-5.16
2019-01-24T04:42:59.276Z,-5.17
2019-01-24T04:45:27.550Z,-5.14
2019-01-24T04:47:55.915Z,-5.16
2019-01-24T04:50:24.178Z,-5.17
2019-01-24T04:52:52.446Z,-5.20
2019-01-24T04:55:20.718Z,-5.24
2019-01-24T04:58:22.332Z,-5.25
2019-01-24T05:00:50.594Z,-5.27
2019-01-24T05:03:18.865Z,-5.13
2019-01-24T05:05:47.146Z,-5.06
2019-01-24T05:08:15.408Z,-5.05
2019-01-24T05:10:43.685Z,-5.02
2019-01-24T05:13:11.955Z,-5.05
2019-01-24T05:15:40.241Z,-5.18
2019-01-24T05:18:08.515Z,-5.26
2019-01-24T05:20:36.778Z,-5.27
2019-01-24T05:23:05.042Z,-5.21
2019-01-24T05:25:33.313Z,-5.14
2019-01-24T05:28:01.570Z,-5.13
2019-01-24T05:30:29.910Z,-5.08
2019-01-24T05:32:58.225Z,-5.06
2019-01-24T05:35:26.486Z,-5.02
2019-01-24T05:37:54.761Z,-4.97
2019-01-24T05:40:23.114Z,-5.01
2019-01-24T05:42:51.361Z,-4.99
2019-01-24T05:45:19.657Z,-5.04
2019-01-24T05:47:47.984Z,-5.10
2019-01-24T05:50:16.270Z,-5.16
2019-01-24T05:52:44.611Z,-5.18
2019-01-24T05:55:46.267Z,-5.20
2019-01-24T05:58:14.538Z,-5.17
2019-01-24T06:03:31.763Z,-5.07
2019-01-24T06:06:00.036Z,-5.09
2019-01-24T06:08:28.410Z,-5.20
2019-01-24T06:10:56.692Z,-5.20
2019-01-24T06:13:24.953Z,-5.11
2019-01-24T06:15:53.218Z,-5.01
2019-01-24T06:18:21.484Z,-5.09
2019-01-24T06:20:49.769Z,-5.03
2019-01-24T06:23:18.043Z,-4.96
2019-01-24T06:25:46.322Z,-4.98
2019-01-24T06:28:14.586Z,-4.86
2019-01-24T06:30:42.851Z,-4.89
2019-01-24T06:33:11.137Z,-4.82
2019-01-24T06:35:39.420Z,-4.84
2019-01-24T06:38:07.689Z,-4.89
2019-01-24T06:40:36.013Z,-4.97
2019-01-24T06:43:04.283Z,-4.98
2019-01-24T06:45:32.555Z,-4.95
2019-01-24T06:48:00.820Z,-4.97
2019-01-24T06:50:29.085Z,-4.89
2019-01-24T06:52:57.358Z,-4.83
2019-01-24T06:55:59.221Z,-4.83
2019-01-24T06:58:27.501Z,-4.72
2019-01-24T07:00:55.842Z,-4.69
2019-01-24T07:03:24.117Z,-4.76
2019-01-24T07:05:55.478Z,-4.71
2019-01-24T07:08:22.389Z,-4.83
2019-01-24T07:10:50.671Z,-4.80
2019-01-24T07:13:18.947Z,-4.90
2019-01-24T07:15:47.232Z,-4.70
2019-01-24T07:18:15.505Z,-4.64
2019-01-24T07:20:55.989Z,-4.65
2019-01-24T07:23:24.254Z,-4.56
2019-01-24T07:25:52.526Z,-4.60
2019-01-24T07:28:20.871Z,-4.45
2019-01-24T07:30:49.137Z,-4.61
2019-01-24T07:33:17.410Z,-4.56
2019-01-24T07:35:45.676Z,-4.44
2019-01-24T07:38:13.951Z,-4.42
2019-01-24T07:40:42.216Z,-4.40
2019-01-24T07:43:10.495Z,-4.36
2019-01-24T07:46:18.801Z,-4.40
2019-01-24T07:48:47.083Z,-4.41
2019-01-24T07:51:15.350Z,-4.38
2019-01-24T07:53:43.623Z,-4.36
2019-01-24T07:56:11.896Z,-4.38
2019-01-24T07:58:40.185Z,-4.48
2019-01-24T08:01:08.458Z,-4.41
2019-01-24T08:03:36.743Z,-4.42
2019-01-24T08:06:08.996Z,-4.35
2019-01-24T08:08:35.161Z,-4.32
2019-01-24T08:11:03.416Z,-4.28
2019-01-24T08:13:31.675Z,-4.30
2019-01-24T08:15:59.951Z,-4.28
2019-01-24T08:18:28.722Z,-4.30
2019-01-24T08:20:56.989Z,-4.44
2019-01-24T08:23:25.271Z,-4.38
2019-01-24T08:25:53.538Z,-4.40
2019-01-24T08:28:21.815Z,-4.35
2019-01-24T08:30:50.083Z,-4.34
2019-01-24T08:33:18.344Z,-4.30
2019-01-24T08:35:46.614Z,-4.21
2019-01-24T08:38:14.877Z,-4.13
2019-01-24T08:40:43.162Z,-4.12
2019-01-24T08:43:11.428Z,-4.14
2019-01-24T08:45:39.694Z,-4.06
2019-01-24T08:48:07.967Z,-4.04
2019-01-24T08:50:36.238Z,-4.13
2019-01-24T08:53:04.580Z,-4.12
2019-01-24T08:55:52.188Z,-4.21
2019-01-24T08:58:20.468Z,-4.15
2019-01-24T09:00:48.731Z,-4.05
2019-01-24T09:03:36.329Z,-4.18
2019-01-24T09:06:38.658Z,-4.18
2019-01-24T09:09:40.849Z,-4.08
2019-01-24T09:12:09.133Z,-3.94
2019-01-24T09:14:56.744Z,-3.93
2019-01-24T09:17:25.035Z,-3.93
2019-01-24T09:19:53.310Z,-4.03
2019-01-24T09:22:21.576Z,-4.15
2019-01-24T09:24:49.852Z,-4.00
2019-01-24T09:27:18.123Z,-3.96
2019-01-24T09:29:46.390Z,-3.91
2019-01-24T09:32:14.649Z,-3.89
2019-01-24T09:34:42.930Z,-3.95
2019-01-24T09:37:11.196Z,-4.11
2019-01-24T09:39:39.459Z,-4.02
2019-01-24T09:42:07.728Z,-3.94
2019-01-24T09:44:35.983Z,-3.97
2019-01-24T09:47:04.265Z,-3.90
2019-01-24T09:49:32.543Z,-3.87
2019-01-24T09:52:00.797Z,-3.93
2019-01-24T09:54:29.073Z,-3.84
2019-01-24T09:56:57.345Z,-3.89
2019-01-24T09:59:25.628Z,-3.92
2019-01-24T10:01:53.904Z,-3.92
2019-01-24T10:04:22.168Z,-4.00
2019-01-24T10:06:50.663Z,-3.99
2019-01-24T10:09:18.981Z,-3.84
2019-01-24T10:11:47.248Z,-3.85
2019-01-24T10:14:15.524Z,-3.97
2019-01-24T10:16:43.783Z,-3.90
2019-01-24T10:19:12.048Z,-3.94
2019-01-24T10:21:40.321Z,-3.85
2019-01-24T10:24:08.599Z,-3.70
2019-01-24T10:26:36.856Z,-3.76
2019-01-24T10:29:05.139Z,-3.74
2019-01-24T10:31:33.476Z,-3.70
2019-01-24T10:34:01.774Z,-3.86
2019-01-24T10:36:30.038Z,-3.73
2019-01-24T10:38:58.314Z,-3.70
2019-01-24T10:41:26.591Z,-3.63
2019-01-24T10:43:54.856Z,-3.60
2019-01-24T10:46:23.127Z,-3.68
2019-01-24T10:48:51.381Z,-3.80
2019-01-24T10:51:19.644Z,-3.84
2019-01-24T10:53:47.915Z,-3.69
2019-01-24T10:56:16.182Z,-3.64
2019-01-24T10:58:44.439Z,-3.59
2019-01-24T11:01:12.740Z,-3.60
2019-01-24T11:03:41.025Z,-3.64
2019-01-24T11:06:09.287Z,-3.76
2019-01-24T11:08:37.558Z,-3.63
2019-01-24T11:11:05.825Z,-3.58
2019-01-24T11:13:34.095Z,-3.58
2019-01-24T11:16:21.711Z,-3.64
2019-01-24T11:18:49.987Z,-3.67
2019-01-24T11:21:18.255Z,-3.53
2019-01-24T11:23:46.581Z,-3.61
2019-01-24T11:26:14.846Z,-3.45
2019-01-24T11:28:43.122Z,-3.53
2019-01-24T11:31:11.415Z,-3.47
2019-01-24T11:33:40.432Z,-3.50
2019-01-24T11:36:08.698Z,-3.51
2019-01-24T11:38:36.953Z,-3.47
2019-01-24T11:41:05.228Z,-3.46
2019-01-24T11:43:33.494Z,-3.47
2019-01-24T11:46:01.784Z,-3.39
2019-01-24T11:48:30.057Z,-3.37
2019-01-24T11:50:58.329Z,-3.29
2019-01-24T11:53:26.596Z,-3.24
2019-01-24T11:55:54.871Z,-3.24
2019-01-24T11:58:23.123Z,-3.28
2019-01-24T12:03:30.345Z,-3.26
2019-01-24T12:05:58.602Z,-3.21
2019-01-24T12:08:26.877Z,-3.31
2019-01-24T12:10:55.178Z,-3.28
2019-01-24T12:13:23.436Z,-3.39
2019-01-24T12:15:51.689Z,-3.19
2019-01-24T12:18:19.956Z,-3.28
2019-01-24T12:20:48.213Z,-3.32
2019-01-24T12:23:16.475Z,-3.16
2019-01-24T12:25:44.752Z,-3.21
2019-01-24T12:28:13.023Z,-3.33
2019-01-24T12:30:41.297Z,-3.28
2019-01-24T12:33:09.556Z,-3.20
2019-01-24T12:35:37.822Z,-3.18
2019-01-24T12:38:06.089Z,-3.23
2019-01-24T12:40:34.354Z,-3.23
2019-01-24T12:43:02.621Z,-3.20
2019-01-24T12:46:10.905Z,-3.27
2019-01-24T12:48:39.176Z,-3.33
2019-01-24T12:51:07.455Z,-3.24
2019-01-24T12:53:35.729Z,-3.13
2019-01-24T12:56:03.992Z,-3.09
2019-01-24T12:58:32.254Z,-3.03
2019-01-24T13:01:00.531Z,-3.09
2019-01-24T13:03:28.800Z,-3.04
2019-01-24T13:05:57.100Z,-3.24
2019-01-24T13:08:25.363Z,-3.07
2019-01-24T13:10:53.646Z,-3.00
2019-01-24T13:13:21.925Z,-3.01
2019-01-24T13:15:50.199Z,-2.99
2019-01-24T13:18:18.477Z,-2.87
2019-01-24T13:20:46.736Z,-2.79
2019-01-24T13:23:15.027Z,-2.74
2019-01-24T13:28:51.352Z,-2.95
2019-01-24T13:31:19.638Z,-2.86
2019-01-24T13:33:47.922Z,-2.83
2019-01-24T13:36:16.181Z,-2.88
2019-01-24T13:38:44.448Z,-3.05
2019-01-24T13:41:12.716Z,-3.01
2019-01-24T13:43:41.563Z,-2.93
2019-01-24T13:46:09.831Z,-2.95
2019-01-24T13:48:38.115Z,-2.89
2019-01-24T13:51:06.378Z,-2.84
2019-01-24T13:53:34.662Z,-2.84
2019-01-24T13:56:02.929Z,-2.98
2019-01-24T13:58:31.189Z,-2.90
2019-01-24T14:00:59.464Z,-2.88
2019-01-24T14:03:27.886Z,-2.88
2019-01-24T14:05:56.162Z,-2.83
2019-01-24T14:08:24.432Z,-2.78
2019-01-24T14:10:52.698Z,-2.86
2019-01-24T14:13:20.992Z,-2.90
2019-01-24T14:15:49.251Z,-2.89
2019-01-24T14:18:17.511Z,-2.82
2019-01-24T14:20:45.771Z,-2.82
2019-01-24T14:23:14.039Z,-2.82
2019-01-24T14:25:42.304Z,-2.74
2019-01-24T14:28:10.568Z,-2.78
2019-01-24T14:30:38.833Z,-2.76
2019-01-24T14:33:07.093Z,-2.86
2019-01-24T14:35:35.358Z,-2.86
2019-01-24T14:38:03.702Z,-2.94
2019-01-24T14:40:31.966Z,-2.88
2019-01-24T14:43:00.231Z,-2.85
2019-01-24T14:45:28.567Z,-2.84
2019-01-24T14:47:56.839Z,-2.89
2019-01-24T14:51:05.151Z,-2.96
2019-01-24T14:53:33.419Z,-2.95
2019-01-24T14:56:01.688Z,-2.88
2019-01-24T14:58:29.951Z,-2.85
2019-01-24T15:01:38.259Z,-2.82
2019-01-24T15:04:06.518Z,-2.88
2019-01-24T15:06:34.792Z,-3.00
2019-01-24T15:11:42.018Z,-3.04
2019-01-24T15:14:10.279Z,-2.93
2019-01-24T15:16:38.574Z,-2.98
2019-01-24T15:19:06.837Z,-3.01
2019-01-24T15:21:35.987Z,-3.02
2019-01-24T15:24:05.164Z,-3.09
2019-01-24T15:26:52.771Z,-2.95
2019-01-24T15:29:21.037Z,-2.95
2019-01-24T15:31:49.317Z,-2.96
2019-01-24T15:34:17.583Z,-3.13
2019-01-24T15:36:45.840Z,-3.06
2019-01-24T15:39:14.106Z,-3.07
2019-01-24T15:41:42.366Z,-3.03
2019-01-24T15:44:10.634Z,-3.05
2019-01-24T15:46:38.903Z,-3.05
2019-01-24T15:49:07.187Z,-3.03
2019-01-24T15:51:35.430Z,-3.00
2019-01-24T15:57:05.259Z,-2.95
2019-01-24T15:59:33.530Z,-2.96
2019-01-24T16:02:01.796Z,-2.96
2019-01-24T16:04:30.071Z,-2.96
2019-01-24T16:06:58.341Z,-2.94
2019-01-24T16:09:26.611Z,-2.82
2019-01-24T16:11:54.884Z,-2.97
2019-01-24T16:14:23.150Z,-2.86
2019-01-24T16:16:51.420Z,-2.85
2019-01-24T16:19:19.705Z,-2.94
2019-01-24T16:21:47.956Z,-2.91
2019-01-24T16:24:16.249Z,-2.90
2019-01-24T16:26:44.518Z,-2.91
2019-01-24T16:29:12.780Z,-2.84
2019-01-24T16:31:41.043Z,-2.81
2019-01-24T16:34:09.298Z,-2.95
2019-01-24T16:36:37.562Z,-2.98
2019-01-24T16:39:39.183Z,-2.85
2019-01-24T16:42:07.443Z,-2.85
2019-01-24T16:44:35.705Z,-2.80
2019-01-24T16:47:04.037Z,-2.93
2019-01-24T16:49:32.294Z,-2.94
2019-01-24T16:52:00.575Z,-3.00
2019-01-24T16:54:28.853Z,-2.93
2019-01-24T16:56:57.156Z,-2.85
2019-01-24T16:59:25.428Z,-2.77
2019-01-24T17:01:53.681Z,-2.77
2019-01-24T17:04:21.946Z,-2.79
2019-01-24T17:06:50.216Z,-2.88
2019-01-24T17:09:18.473Z,-2.87
2019-01-24T17:11:46.748Z,-2.80
2019-01-24T17:14:15.005Z,-2.85
2019-01-24T17:16:43.276Z,-2.88
2019-01-24T17:19:11.549Z,-2.92
2019-01-24T17:21:39.813Z,-2.88
2019-01-24T17:24:08.086Z,-2.85
2019-01-24T17:26:36.363Z,-2.90
2019-01-24T17:29:44.670Z,-2.87
2019-01-24T17:32:12.955Z,-2.84
2019-01-24T17:34:41.211Z,-2.87
2019-01-24T17:37:09.478Z,-2.87
2019-01-24T17:39:37.734Z,-2.87
2019-01-24T17:42:06.036Z,-2.86
2019-01-24T17:44:34.299Z,-2.81
2019-01-24T17:47:02.555Z,-2.86
2019-01-24T17:49:30.852Z,-2.89
2019-01-24T17:51:59.136Z,-2.94
2019-01-24T17:54:27.414Z,-2.85
2019-01-24T17:56:55.697Z,-2.91
2019-01-24T17:59:23.979Z,-2.92
2019-01-24T18:01:52.272Z,-2.90
2019-01-24T18:04:21.779Z,-2.99
2019-01-24T18:06:50.559Z,-2.93
2019-01-24T18:09:18.818Z,-2.91
2019-01-24T18:11:48.236Z,-3.00
2019-01-24T18:14:17.105Z,-2.97
2019-01-24T18:16:45.391Z,-3.01
2019-01-24T18:19:13.658Z,-3.06
2019-01-24T18:21:41.930Z,-3.14
2019-01-24T18:24:10.198Z,-3.12
2019-01-24T18:26:38.482Z,-3.05
2019-01-24T18:29:06.820Z,-2.98
2019-01-24T18:31:35.102Z,-3.04
2019-01-24T18:34:03.380Z,-2.98
2019-01-24T18:36:31.650Z,-3.03
2019-01-24T18:38:59.922Z,-3.00
2019-01-24T18:41:28.180Z,-3.14
2019-01-24T18:43:56.466Z,-3.19
2019-01-24T18:46:43.842Z,-3.15
2019-01-24T18:49:12.136Z,-3.09
2019-01-24T18:51:40.403Z,-3.12
2019-01-24T18:54:08.999Z,-3.19
2019-01-24T18:56:37.355Z,-3.27
2019-01-24T18:59:05.619Z,-3.24
2019-01-24T19:01:33.886Z,-3.15
2019-01-24T19:04:02.169Z,-3.05
2019-01-24T19:06:30.441Z,-2.92
2019-01-24T19:08:58.710Z,-3.15
2019-01-24T19:11:26.977Z,-3.12
2019-01-24T19:13:55.249Z,-3.11
2019-01-24T19:16:23.529Z,-3.10
2019-01-24T19:18:51.790Z,-3.15
2019-01-24T19:21:20.065Z,-3.14
2019-01-24T19:23:48.343Z,-3.07
2019-01-24T19:26:16.679Z,-3.05
2019-01-24T19:28:44.922Z,-2.97
2019-01-24T19:31:32.568Z,-2.92
2019-01-24T19:34:00.870Z,-2.91
2019-01-24T19:36:29.152Z,-3.05
2019-01-24T19:38:57.454Z,-3.23
2019-01-24T19:41:45.108Z,-3.10
2019-01-24T19:44:16.072Z,-3.04
2019-01-24T19:46:44.308Z,-3.12
2019-01-24T19:52:13.982Z,-3.07
2019-01-24T19:54:42.280Z,-3.06
2019-01-24T19:57:10.520Z,-3.08
2019-01-24T19:59:39.625Z,-3.07
2019-01-24T20:02:07.894Z,-3.11
2019-01-24T20:04:38.249Z,-3.10
2019-01-24T20:07:06.530Z,-3.06
2019-01-24T20:09:34.896Z,-2.96
2019-01-24T20:12:03.329Z,-2.87
2019-01-24T20:14:31.597Z,-2.89
2019-01-24T20:16:59.882Z,-2.86
2019-01-24T20:19:47.270Z,-2.89
2019-01-24T20:22:36.197Z,-2.93
2019-01-24T20:25:39.433Z,-3.00
2019-01-24T20:28:07.723Z,-3.10
2019-01-24T20:31:17.040Z,-2.97
2019-01-24T20:33:45.664Z,-2.99
2019-01-24T20:36:13.943Z,-2.93
2019-01-24T20:38:42.197Z,-2.86
2019-01-24T20:41:10.495Z,-2.87
2019-01-24T20:43:38.973Z,-2.84
2019-01-24T20:46:07.264Z,-2.84
2019-01-24T20:48:35.536Z,-2.94
2019-01-24T20:51:03.808Z,-3.01
2019-01-24T20:53:32.109Z,-3.00
2019-01-24T20:56:00.398Z,-2.99
2019-01-24T20:58:28.689Z,-3.04
2019-01-24T21:00:56.973Z,-3.04
2019-01-24T21:03:25.250Z,-3.00
2019-01-24T21:05:53.533Z,-2.97
2019-01-24T21:08:23.904Z,-2.88
2019-01-24T21:10:52.185Z,-2.92
2019-01-24T21:13:20.462Z,-2.86
2019-01-24T21:15:48.734Z,-2.87
2019-01-24T21:18:17.025Z,-2.94
2019-01-24T21:20:45.288Z,-2.88
2019-01-24T21:23:13.566Z,-2.90
2019-01-24T21:25:41.834Z,-3.08
2019-01-24T21:28:10.176Z,-3.19
2019-01-24T21:30:38.437Z,-3.22
2019-01-24T21:33:46.761Z,-3.08
2019-01-24T21:36:15.025Z,-3.02
2019-01-24T21:38:43.302Z,-2.93
2019-01-24T21:41:11.568Z,-2.92
2019-01-24T21:43:40.302Z,-2.90
2019-01-24T21:46:08.564Z,-2.89
2019-01-24T21:48:36.833Z,-2.99
2019-01-24T21:51:11.152Z,-2.91
2019-01-24T21:53:35.200Z,-2.89
2019-01-24T21:56:03.474Z,-2.88
2019-01-24T21:58:31.757Z,-2.87
2019-01-24T22:01:00.018Z,-2.86
2019-01-24T22:03:28.307Z,-2.85
2019-01-24T22:05:56.571Z,-2.83
2019-01-24T22:08:25.299Z,-2.82
2019-01-24T22:10:54.870Z,-2.85
2019-01-24T22:13:23.143Z,-2.86
2019-01-24T22:15:51.423Z,-2.94
2019-01-24T22:18:19.704Z,-2.96
2019-01-24T22:20:47.992Z,-2.94
2019-01-24T22:23:16.255Z,-2.93
2019-01-24T22:25:44.543Z,-3.01
2019-01-24T22:28:12.852Z,-2.92
2019-01-24T22:31:15.085Z,-2.84
2019-01-24T22:33:43.375Z,-2.91
2019-01-24T22:36:11.647Z,-3.03
2019-01-24T22:38:39.939Z,-3.03
2019-01-24T22:41:08.196Z,-3.00
2019-01-24T22:43:36.492Z,-2.94
2019-01-24T22:49:12.841Z,-2.97
2019-01-24T22:51:41.148Z,-3.01
2019-01-24T22:54:09.428Z,-3.11
2019-01-24T22:56:37.711Z,-3.29
2019-01-24T22:59:05.977Z,-3.16
2019-01-24T23:02:14.305Z,-3.21
2019-01-24T23:04:42.570Z,-3.19
2019-01-24T23:07:10.845Z,-3.12
2019-01-24T23:09:44.080Z,-3.03
2019-01-24T23:12:09.132Z,-3.00
2019-01-24T23:14:37.413Z,-2.99
2019-01-24T23:17:05.706Z,-2.99
2019-01-24T23:19:33.989Z,-3.02
2019-01-24T23:22:02.253Z,-3.09
2019-01-24T23:24:30.562Z,-3.09
2019-01-24T23:26:58.827Z,-3.05
2019-01-24T23:29:27.109Z,-3.03
2019-01-24T23:31:55.363Z,-3.03
2019-01-24T23:34:23.663Z,-3.00
2019-01-24T23:36:51.941Z,-2.96
2019-01-24T23:39:20.202Z,-2.92
2019-01-24T23:41:48.472Z,-2.92
2019-01-24T23:44:16.759Z,-2.96
2019-01-24T23:46:45.029Z,-2.92
2019-01-24T23:49:13.283Z,-2.97
2019-01-24T23:51:41.646Z,-3.01
2019-01-24T23:54:09.920Z,-3.06
2019-01-24T23:56:38.214Z,-3.07
2019-01-24T23:59:06.477Z,-3.02
